Ferndale, Washington
Current Conditions -  °F | °C
As of 10:53 PM on Sunday 21 Dec 2014 (Local Time) from KBLI Reporting Station
Broken Clouds Broken Clouds  
Wind Chill: 50°   Ceiling: 6500
Heat Index: 50°   Visibility: 10mi
Dew Point: 44°   Wind: 10mph
Humidity: 80%   Direction: 170°S
Pressure: 30.06"   Gusts: NA
Location:  48.85°N, 122.59°W
Report Text: KBLI 220653Z 17009KT 10SM BKN065 BKN080 BKN110 10/07 A3006 RMK AO2 SLP185 T01000067
Loading
Personal Weather Stations






























Interactive Weather Map New forecast layout! Learn more

10-Day Weather Forecast

Advertisements
Track Severe Weather on mobile